Time;durP1;ratioP1;P1;durP2;ratioP2;P2;SDS_P1;SDS_P2;PMS_P1;PMS_P2;Temp;Humidity;BMP_temperature;BMP_pressure;BME280_temperature;BME280_humidity;BME280_pressure;Samples;Min_cycle;Max_cycle;Signal;HPM_P1;HPM_P2
2022/11/25 00:00:39;;;;;;;2.73;1.30;;;;;;;5.72;89.36;97763.53;6290421;28;20225;-43
2022/11/25 00:03:42;;;;;;;4.80;1.70;;;;;;;5.67;89.82;97760.38;6295618;28;20232;-43
2022/11/25 00:06:44;;;;;;;3.00;1.40;;;;;;;5.67;89.82;97766.44;6299427;28;20703;-43
2022/11/25 00:09:46;;;;;;;1.40;1.30;;;;;;;5.66;89.36;97756.91;6299214;28;20241;-43
2022/11/25 00:12:48;;;;;;;2.77;1.53;;;;;;;5.66;89.75;97756.06;6299132;28;20646;-43
2022/11/25 00:15:50;;;;;;;3.30;1.63;;;;;;;5.68;89.31;97759.44;6296939;28;20241;-43
2022/11/25 00:18:54;;;;;;;3.77;1.37;;;;;;;5.70;89.20;97755.75;6298890;28;20220;-43
2022/11/25 00:21:56;;;;;;;4.27;1.80;;;;;;;5.71;89.00;97760.06;6292813;28;20221;-42
2022/11/25 00:24:58;;;;;;;2.10;1.47;;;;;;;5.70;89.02;97755.75;6292507;28;20255;-43
2022/11/25 00:28:00;;;;;;;3.80;1.63;;;;;;;5.69;88.64;97759.31;6287749;28;20248;-43
2022/11/25 00:31:07;;;;;;;1.83;1.50;;;;;;;5.70;89.06;97768.00;6292263;28;20233;-43
2022/11/25 00:34:13;;;;;;;3.70;1.40;;;;;;;5.72;88.30;97760.91;6294244;28;20815;-43
2022/11/25 00:37:15;;;;;;;3.23;1.37;;;;;;;5.72;88.62;97769.63;6275033;28;20265;-43
2022/11/25 00:40:17;;;;;;;4.80;1.67;;;;;;;5.71;88.42;97767.09;6294209;28;20233;-42
2022/11/25 00:46:40;;;;;;;5.83;1.90;;;;;;;5.75;87.02;97766.81;6289557;28;20628;-43
2022/11/25 00:49:45;;;;;;;3.67;1.57;;;;;;;5.78;86.52;97765.81;6294867;28;20232;-43
2022/11/25 00:52:47;;;;;;;3.43;1.70;;;;;;;5.77;86.98;97772.81;6270242;28;20563;-43
2022/11/25 00:59:11;;;;;;;3.83;1.70;;;;;;;5.78;86.54;97774.50;6289065;28;20224;-43
2022/11/25 01:02:14;;;;;;;2.40;1.50;;;;;;;5.74;87.27;97783.47;6291364;28;20240;-43
2022/11/25 01:05:18;;;;;;;1.57;1.30;;;;;;;5.69;87.14;97780.25;6297707;28;20229;-43
2022/11/25 01:08:20;;;;;;;2.70;1.10;;;;;;;5.67;87.71;97781.31;6274068;28;20235;-43
2022/11/25 01:11:23;;;;;;;2.47;1.20;;;;;;;5.65;87.84;97786.63;6287034;28;20263;-43
2022/11/25 01:14:25;;;;;;;1.70;1.03;;;;;;;5.63;88.30;97785.88;6292330;28;20229;-43
2022/11/25 01:17:27;;;;;;;4.90;1.67;;;;;;;5.60;87.86;97783.41;6292310;28;20286;-44
2022/11/25 01:20:30;;;;;;;4.30;1.63;;;;;;;5.65;87.58;97781.38;6291584;28;20272;-43
2022/11/25 01:23:34;;;;;;;2.83;1.10;;;;;;;5.68;87.02;97789.06;6279982;28;20528;-42
2022/11/25 01:26:36;;;;;;;2.07;1.20;;;;;;;5.65;86.77;97788.41;6292393;28;20347;-43
2022/11/25 01:29:40;;;;;;;1.73;0.93;;;;;;;5.58;87.76;97787.94;6291651;28;20242;-43
2022/11/25 01:32:42;;;;;;;3.50;0.87;;;;;;;5.51;87.61;97782.19;6292269;28;20370;-43
2022/11/25 01:35:44;;;;;;;1.53;0.97;;;;;;;5.45;88.18;97781.72;6268736;28;20235;-43
2022/11/25 01:38:50;;;;;;;4.90;1.20;;;;;;;5.37;89.02;97783.94;6290842;28;20241;-43
2022/11/25 01:41:52;;;;;;;1.07;0.70;;;;;;;5.27;89.08;97785.41;6292434;28;20236;-43
2022/11/25 01:45:32;;;;;;;3.97;1.03;;;;;;;5.20;89.21;97788.34;6273791;28;20235;-43
2022/11/25 01:48:45;;;;;;;3.50;1.10;;;;;;;5.11;89.31;97788.88;6146373;28;20250;-43
2022/11/25 01:52:00;;;;;;;3.20;1.07;;;;;;;5.02;89.79;97783.31;6145380;28;20224;-43
2022/11/25 01:55:09;;;;;;;1.73;0.93;;;;;;;4.95;89.92;97793.28;6141614;28;20357;-43
2022/11/25 01:58:34;;;;;;;2.70;1.10;;;;;;;4.96;90.21;97787.13;6143385;28;20863;-43
2022/11/25 02:01:36;;;;;;;2.63;1.10;;;;;;;4.99;89.79;97792.16;6147225;28;20311;-43
2022/11/25 02:04:40;;;;;;;3.03;1.07;;;;;;;5.06;89.52;97796.16;6141797;28;20712;-43
2022/11/25 02:07:45;;;;;;;1.53;1.40;;;;;;;5.17;88.50;97795.53;6142113;28;20249;-43
2022/11/25 02:10:48;;;;;;;2.27;1.20;;;;;;;5.20;88.05;97803.19;6126413;28;20236;-43
2022/11/25 02:13:52;;;;;;;1.43;1.00;;;;;;;5.19;88.26;97801.53;6142075;28;20240;-43
2022/11/25 02:16:54;;;;;;;3.00;0.90;;;;;;;5.18;87.55;97798.06;6141198;28;20235;-43
2022/11/25 02:20:08;;;;;;;2.07;0.97;;;;;;;5.11;88.01;97798.50;6143876;28;20259;-43
2022/11/25 02:23:52;;;;;;;1.80;1.00;;;;;;;4.96;88.50;97792.38;6187189;28;20239;-43
2022/11/25 02:26:54;;;;;;;1.13;0.90;;;;;;;4.81;89.26;97799.28;6277220;28;20236;-43
2022/11/25 02:29:57;;;;;;;2.20;1.07;;;;;;;4.72;89.74;97789.31;6270900;28;20235;-43
2022/11/25 02:33:00;;;;;;;3.67;1.20;;;;;;;4.62;89.94;97782.06;6286711;28;20224;-43
2022/11/25 02:36:05;;;;;;;2.17;1.13;;;;;;;4.59;90.83;97790.91;6290516;28;20239;-43
2022/11/25 02:39:08;;;;;;;2.00;0.80;;;;;;;4.51;90.53;97792.25;6283336;28;20211;-43
2022/11/25 02:42:10;;;;;;;3.43;0.80;;;;;;;4.39;90.74;97794.59;6269296;28;20216;-43
2022/11/25 02:45:18;;;;;;;2.10;0.83;;;;;;;4.26;91.08;97801.44;6272876;28;20210;-43
2022/11/25 02:48:21;;;;;;;3.43;1.03;;;;;;;4.18;92.16;97800.16;6287638;28;20301;-43
2022/11/25 02:51:44;;;;;;;3.57;1.20;;;;;;;4.19;92.60;97794.84;6290360;28;20226;-43
2022/11/25 02:54:48;;;;;;;1.07;0.70;;;;;;;4.03;91.84;97807.00;6289460;28;20283;-43
2022/11/25 02:57:50;;;;;;;2.47;0.80;;;;;;;3.81;92.41;97802.06;6285355;28;20230;-43
2022/11/25 03:00:52;;;;;;;2.00;0.83;;;;;;;3.62;92.84;97802.16;6272446;28;20234;-43
2022/11/25 03:03:54;;;;;;;1.27;0.57;;;;;;;3.43;93.76;97808.34;6292140;28;20238;-44
2022/11/25 03:06:56;;;;;;;1.77;0.73;;;;;;;3.27;94.00;97818.72;6272347;28;20288;-43
2022/11/25 03:09:58;;;;;;;3.83;0.87;;;;;;;3.09;94.14;97815.25;6273568;28;20234;-44
2022/11/25 03:13:01;;;;;;;1.27;0.83;;;;;;;2.92;94.69;97816.03;6266370;28;20854;-45
2022/11/25 03:16:03;;;;;;;2.43;0.90;;;;;;;2.82;94.73;97829.56;6276149;28;20222;-44
2022/11/25 03:19:07;;;;;;;2.60;1.13;;;;;;;2.67;94.75;97833.75;6277498;28;20767;-44
2022/11/25 03:22:09;;;;;;;3.27;0.90;;;;;;;2.57;94.88;97835.09;6275595;28;20236;-44
2022/11/25 03:25:13;;;;;;;2.13;0.73;;;;;;;2.51;94.78;97830.97;6269901;28;20241;-44
2022/11/25 03:28:15;;;;;;;2.63;0.90;;;;;;;2.45;95.10;97828.69;6277885;28;20230;-44
2022/11/25 03:31:18;;;;;;;3.07;1.10;;;;;;;2.39;95.51;97828.97;6293559;28;20717;-43
2022/11/25 03:34:21;;;;;;;1.73;0.90;;;;;;;2.30;95.72;97842.38;6277830;28;20236;-43
2022/11/25 03:37:23;;;;;;;1.17;0.80;;;;;;;2.22;96.15;97847.94;6294542;28;20342;-43
2022/11/25 03:40:26;;;;;;;2.37;1.17;;;;;;;2.28;97.51;97840.78;6293939;28;20373;-43
2022/11/25 03:43:28;;;;;;;3.77;1.20;;;;;;;2.51;97.87;97836.19;6275501;28;20244;-43
2022/11/25 03:46:30;;;;;;;1.73;1.10;;;;;;;2.52;97.42;97837.03;6295367;28;20271;-43
2022/11/25 03:49:34;;;;;;;3.70;1.10;;;;;;;2.36;97.67;97841.25;6275648;28;20259;-43
2022/11/25 03:52:36;;;;;;;2.93;1.50;;;;;;;2.59;99.21;97849.75;6291378;28;20238;-43
2022/11/25 03:55:39;;;;;;;2.03;0.80;;;;;;;2.63;99.10;97850.44;6276640;28;20772;-43
2022/11/25 03:58:42;;;;;;;2.40;0.90;;;;;;;2.50;98.64;97851.88;6274161;28;20236;-43
2022/11/25 04:01:46;;;;;;;5.23;1.10;;;;;;;2.41;99.53;97858.38;6294134;28;20317;-43
2022/11/25 04:04:48;;;;;;;2.43;1.20;;;;;;;2.60;99.41;97863.59;6293696;28;20271;-43
2022/11/25 04:07:52;;;;;;;4.07;1.17;;;;;;;2.48;99.44;97864.16;6293848;28;20234;-43
2022/11/25 04:10:59;;;;;;;7.67;1.00;;;;;;;2.41;99.43;97860.97;6275325;28;20354;-43
2022/11/25 04:14:05;;;;;;;2.77;1.20;;;;;;;2.30;99.84;97870.16;6291841;28;20638;-43
2022/11/25 04:17:08;;;;;;;2.60;1.10;;;;;;;2.30;100.00;97873.63;6277824;28;20227;-43
2022/11/25 04:20:13;;;;;;;2.07;0.93;;;;;;;2.14;99.76;97875.22;6270843;28;20229;-43
2022/11/25 04:23:18;;;;;;;3.67;1.40;;;;;;;1.96;99.76;97873.41;6274742;28;20223;-44
2022/11/25 04:26:30;;;;;;;2.33;1.10;;;;;;;1.82;100.00;97881.78;6272916;28;20312;-43
2022/11/25 04:29:32;;;;;;;4.80;1.50;;;;;;;1.67;100.00;97878.09;6275994;28;20236;-43
2022/11/25 04:32:37;;;;;;;5.93;1.20;;;;;;;1.55;100.00;97875.13;6272727;28;20472;-43
2022/11/25 04:35:42;;;;;;;2.93;1.40;;;;;;;1.43;100.00;97877.31;6291278;28;20635;-43
2022/11/25 04:38:45;;;;;;;3.70;0.90;;;;;;;1.30;100.00;97877.91;6292662;28;20240;-43
2022/11/25 04:41:47;;;;;;;4.93;1.27;;;;;;;1.21;100.00;97884.28;6268622;28;20246;-43
2022/11/25 04:44:50;;;;;;;1.77;1.13;;;;;;;1.13;100.00;97881.16;6276679;28;20238;-44
2022/11/25 04:48:12;;;;;;;1.93;1.53;;;;;;;1.02;100.00;97886.78;6289606;28;20234;-43
2022/11/25 04:51:14;;;;;;;3.50;2.00;;;;;;;0.99;100.00;97888.66;6276412;28;20230;-43
2022/11/25 04:54:17;;;;;;;6.03;1.73;;;;;;;0.94;100.00;97894.03;6285705;28;20726;-43
2022/11/25 04:57:21;;;;;;;2.70;2.13;;;;;;;0.87;100.00;97895.16;6267917;28;20230;-44
2022/11/25 05:00:24;;;;;;;3.07;1.90;;;;;;;0.81;100.00;97891.94;6273718;28;20230;-43
2022/11/25 05:03:27;;;;;;;3.30;1.90;;;;;;;0.74;100.00;97893.94;6274556;28;20368;-44
2022/11/25 05:06:29;;;;;;;4.87;2.43;;;;;;;0.72;100.00;97899.19;6268371;28;20233;-44
2022/11/25 05:09:31;;;;;;;2.53;2.00;;;;;;;0.66;100.00;97896.81;6292233;28;20232;-43
2022/11/25 05:12:54;;;;;;;2.27;1.73;;;;;;;0.62;100.00;97896.97;6289712;28;20233;-44
2022/11/25 05:15:59;;;;;;;4.23;1.80;;;;;;;0.57;100.00;97898.91;6276434;28;20369;-43
2022/11/25 05:19:01;;;;;;;3.33;1.43;;;;;;;0.53;100.00;97899.91;6273399;28;20729;-43
2022/11/25 05:22:04;;;;;;;2.67;1.40;;;;;;;0.48;100.00;97907.06;6273746;28;20239;-43
2022/11/25 05:25:07;;;;;;;2.57;1.13;;;;;;;0.43;100.00;97904.59;6292957;28;20609;-43
2022/11/25 05:28:14;;;;;;;3.87;1.70;;;;;;;0.39;100.00;97903.03;6263119;28;20235;-43
2022/11/25 05:31:16;;;;;;;4.70;1.50;;;;;;;0.36;100.00;97904.00;6273867;28;20247;-43
2022/11/25 05:34:19;;;;;;;2.13;1.33;;;;;;;0.35;100.00;97904.88;6291603;28;20234;-43
2022/11/25 05:37:22;;;;;;;3.47;1.17;;;;;;;0.32;100.00;97898.94;6273712;28;20705;-43
2022/11/25 05:40:33;;;;;;;4.27;1.40;;;;;;;0.25;100.00;97902.69;6246935;28;20235;-43
2022/11/25 05:43:39;;;;;;;3.07;1.00;;;;;;;0.21;100.00;97908.88;6269745;28;20231;-44
2022/11/25 05:46:45;;;;;;;3.50;1.17;;;;;;;0.15;100.00;97903.91;6291967;28;20248;-43
2022/11/25 05:49:47;;;;;;;6.17;1.30;;;;;;;0.13;100.00;97905.69;6272314;28;20717;-43
2022/11/25 05:52:49;;;;;;;3.30;1.10;;;;;;;0.08;100.00;97899.84;6271666;28;20242;-43
2022/11/25 05:55:57;;;;;;;3.77;1.23;;;;;;;0.04;100.00;97901.69;6290083;28;20505;-43
2022/11/25 05:59:18;;;;;;;5.23;1.80;;;;;;;0.02;100.00;97900.88;6290764;28;20219;-43
2022/11/25 06:02:33;;;;;;;4.27;1.50;;;;;;;0.06;100.00;97902.47;6273830;28;20716;-43
2022/11/25 06:05:35;;;;;;;6.37;1.30;;;;;;;0.05;100.00;97913.75;6268113;28;20222;-43
2022/11/25 06:08:38;;;;;;;1.53;0.70;;;;;;;0.03;100.00;97906.91;6273192;28;20600;-44
2022/11/25 06:11:41;;;;;;;3.23;1.20;;;;;;;-0.02;100.00;97905.34;6273630;28;20232;-43
2022/11/25 06:14:43;;;;;;;3.10;1.47;;;;;;;0.02;100.00;97903.47;6271935;28;20229;-43
2022/11/25 06:17:45;;;;;;;3.73;1.40;;;;;;;-0.01;100.00;97907.03;6290597;28;20226;-43
2022/11/25 06:20:57;;;;;;;3.97;1.60;;;;;;;0.01;100.00;97899.19;6272531;28;20242;-43
2022/11/25 06:24:01;;;;;;;1.10;1.00;;;;;;;-0.02;100.00;97902.75;6270999;28;20233;-44
2022/11/25 06:27:05;;;;;;;2.63;1.20;;;;;;;-0.02;100.00;97909.69;6266477;28;20214;-43
2022/11/25 06:30:09;;;;;;;3.30;1.67;;;;;;;-0.06;100.00;97906.34;6271193;28;20282;-43
2022/11/25 06:33:11;;;;;;;4.50;1.33;;;;;;;-0.06;100.00;97908.09;6271961;28;20218;-43
2022/11/25 06:36:18;;;;;;;3.37;1.73;;;;;;;-0.06;100.00;97902.91;6271516;28;20206;-43
2022/11/25 06:39:20;;;;;;;4.23;1.20;;;;;;;-0.08;100.00;97905.53;6290490;28;20251;-43
2022/11/25 06:42:22;;;;;;;4.20;1.13;;;;;;;-0.07;100.00;97903.78;6289968;28;20258;-43
2022/11/25 06:45:24;;;;;;;2.63;1.27;;;;;;;-0.07;100.00;97904.66;6290326;28;20595;-43
2022/11/25 06:48:26;;;;;;;2.20;0.90;;;;;;;-0.08;100.00;97912.47;6271369;28;20253;-43
2022/11/25 06:51:29;;;;;;;1.53;1.00;;;;;;;-0.09;100.00;97916.81;6295516;28;20234;-43
2022/11/25 06:54:31;;;;;;;5.43;1.40;;;;;;;-0.07;100.00;97919.34;6292004;28;20229;-43
2022/11/25 06:57:33;;;;;;;3.17;1.20;;;;;;;-0.09;100.00;97921.16;6293313;28;20229;-43
2022/11/25 07:00:35;;;;;;;3.20;1.40;;;;;;;-0.09;100.00;97924.59;6293852;28;20572;-43
2022/11/25 07:03:37;;;;;;;5.13;1.53;;;;;;;-0.06;100.00;97927.09;6293728;28;20232;-43
2022/11/25 07:06:39;;;;;;;3.00;1.00;;;;;;;-0.07;100.00;97920.22;6292852;28;20257;-44
2022/11/25 07:09:41;;;;;;;5.10;1.10;;;;;;;-0.09;100.00;97931.53;6289447;28;20765;-43
2022/11/25 07:12:44;;;;;;;4.87;1.20;;;;;;;-0.10;100.00;97935.88;6293779;28;20364;-44
2022/11/25 07:15:46;;;;;;;1.80;1.10;;;;;;;-0.07;100.00;97934.91;6286391;28;20231;-44
2022/11/25 07:18:49;;;;;;;3.17;1.73;;;;;;;-0.04;100.00;97942.59;6289192;28;20229;-43
2022/11/25 07:21:51;;;;;;;5.63;1.97;;;;;;;-0.03;100.00;97931.34;6290293;28;20229;-43
2022/11/25 07:24:53;;;;;;;5.77;3.00;;;;;;;-0.02;100.00;97938.22;6285436;28;20770;-43
2022/11/25 07:27:56;;;;;;;8.03;2.07;;;;;;;0.04;100.00;97942.34;6284980;28;20230;-43
2022/11/25 07:31:12;;;;;;;4.07;1.60;;;;;;;0.05;100.00;97936.25;6288034;28;20254;-43
2022/11/25 07:34:34;;;;;;;5.07;1.50;;;;;;;0.13;100.00;97936.84;6290081;28;20230;-44
2022/11/25 07:37:36;;;;;;;7.63;1.20;;;;;;;0.17;100.00;97941.88;6287583;28;20680;-45
2022/11/25 07:40:38;;;;;;;2.43;1.47;;;;;;;0.20;100.00;97940.94;6285181;28;20236;-43
2022/11/25 07:43:44;;;;;;;2.23;1.17;;;;;;;0.27;100.00;97943.25;6289413;28;20308;-43
2022/11/25 07:46:49;;;;;;;1.87;1.27;;;;;;;0.30;100.00;97942.31;6270258;28;20554;-44
2022/11/25 07:49:52;;;;;;;3.37;1.30;;;;;;;0.42;100.00;97943.59;6287308;28;20249;-43
2022/11/25 07:52:54;;;;;;;5.30;2.17;;;;;;;0.47;100.00;97949.50;6285849;28;20717;-43
2022/11/25 07:56:00;;;;;;;7.83;1.70;;;;;;;0.53;100.00;97955.28;6286864;28;20934;-44
2022/11/25 07:59:04;;;;;;;3.90;1.20;;;;;;;0.57;100.00;97951.69;6273439;28;20266;-44
2022/11/25 08:02:08;;;;;;;7.77;1.50;;;;;;;0.66;100.00;97959.16;6293940;28;20323;-43
2022/11/25 08:05:11;;;;;;;5.27;1.50;;;;;;;0.74;100.00;97962.31;6291418;28;20317;-43
2022/11/25 08:08:13;;;;;;;5.20;1.60;;;;;;;0.81;100.00;97954.28;6293251;28;20291;-43
2022/11/25 08:11:21;;;;;;;3.27;1.17;;;;;;;0.92;100.00;97962.53;6291334;28;20230;-43
2022/11/25 08:14:24;;;;;;;5.30;1.10;;;;;;;0.99;100.00;97957.06;6290174;28;20233;-43
2022/11/25 08:17:26;;;;;;;5.83;1.63;;;;;;;1.08;100.00;97961.91;6294046;28;20730;-43
2022/11/25 08:20:30;;;;;;;2.10;0.90;;;;;;;1.15;100.00;97964.28;6291518;28;20739;-43
2022/11/25 08:23:32;;;;;;;7.23;1.33;;;;;;;1.23;100.00;97957.88;6295571;28;20222;-43
2022/11/25 08:26:36;;;;;;;4.57;1.30;;;;;;;1.34;100.00;97960.91;6291652;28;20644;-43
2022/11/25 08:29:38;;;;;;;1.27;0.90;;;;;;;1.46;100.00;97967.38;6293906;28;20659;-43
2022/11/25 08:32:40;;;;;;;2.23;1.00;;;;;;;1.58;100.00;97963.44;6291839;28;20597;-43
2022/11/25 08:35:42;;;;;;;1.70;1.00;;;;;;;1.79;100.00;97960.84;6293079;28;20608;-44
2022/11/25 08:38:46;;;;;;;2.47;1.07;;;;;;;2.02;100.00;97961.63;6272593;28;20737;-43
2022/11/25 08:41:48;;;;;;;1.53;0.80;;;;;;;2.20;100.00;97972.09;6293736;28;20313;-43
2022/11/25 08:44:55;;;;;;;5.47;1.40;;;;;;;2.49;100.00;97975.25;6293018;28;20292;-44
2022/11/25 08:47:57;;;;;;;1.83;0.90;;;;;;;2.71;100.00;97969.94;6284987;28;20694;-43
2022/11/25 08:50:59;;;;;;;4.13;1.30;;;;;;;2.95;100.00;97977.50;6293981;28;20635;-43
2022/11/25 08:54:01;;;;;;;3.50;1.50;;;;;;;3.16;100.00;97977.44;6288283;28;20239;-43
2022/11/25 08:57:04;;;;;;;3.47;1.20;;;;;;;3.38;100.00;97977.31;6292122;28;20223;-43
2022/11/25 09:00:07;;;;;;;5.97;1.13;;;;;;;3.66;100.00;97977.69;6290961;28;20224;-43
2022/11/25 09:03:10;;;;;;;2.83;1.00;;;;;;;3.94;100.00;97979.81;6292839;28;20225;-44
2022/11/25 09:06:13;;;;;;;4.63;1.53;;;;;;;4.15;100.00;97977.91;6287052;28;20255;-43
2022/11/25 09:09:15;;;;;;;3.43;1.43;;;;;;;4.40;100.00;97971.34;6291116;28;20222;-43
2022/11/25 09:12:17;;;;;;;3.43;1.23;;;;;;;4.81;100.00;97966.59;6292374;28;20228;-43
2022/11/25 09:15:20;;;;;;;4.93;1.00;;;;;;;5.04;100.00;97972.41;6288612;28;20226;-43
2022/11/25 09:18:25;;;;;;;5.30;1.40;;;;;;;5.24;100.00;97964.31;6291037;28;20230;-43
2022/11/25 09:21:27;;;;;;;2.00;1.17;;;;;;;5.32;100.00;97967.34;6291927;28;20246;-43
2022/11/25 09:24:29;;;;;;;4.87;1.40;;;;;;;5.62;100.00;97969.22;6288359;28;20226;-43
2022/11/25 09:27:31;;;;;;;4.10;1.30;;;;;;;5.77;100.00;97963.13;6292417;28;20229;-43
2022/11/25 09:30:33;;;;;;;5.93;1.30;;;;;;;5.98;98.91;97963.72;6291933;28;20237;-43
2022/11/25 09:33:36;;;;;;;5.13;1.80;;;;;;;6.31;97.01;97967.00;6291504;28;20264;-42
2022/11/25 09:36:38;;;;;;;1.53;0.90;;;;;;;6.59;96.38;97968.81;6289100;28;20627;-42
2022/11/25 09:39:40;;;;;;;3.00;1.23;;;;;;;6.86;93.07;97967.19;6252987;28;20759;-43
2022/11/25 09:46:57;;;;;;;3.03;1.10;;;;;;;7.41;92.23;97953.25;6271420;28;20713;-42
2022/11/25 09:50:07;;;;;;;4.90;1.10;;;;;;;7.57;90.05;97956.59;6290616;28;20228;-43
2022/11/25 09:53:27;;;;;;;5.73;0.90;;;;;;;7.62;89.65;97959.75;6286455;28;20233;-43
2022/11/25 09:56:52;;;;;;;4.30;0.80;;;;;;;7.89;89.38;97956.28;6286195;28;20737;-43
2022/11/25 10:00:16;;;;;;;3.03;0.77;;;;;;;8.12;85.28;97956.47;6290247;28;20355;-43
2022/11/25 10:03:37;;;;;;;2.57;1.20;;;;;;;8.36;78.87;97958.47;6286803;28;20576;-43
2022/11/25 10:06:47;;;;;;;2.30;0.83;;;;;;;8.66;79.37;97951.13;6272067;28;20226;-44
2022/11/25 10:10:03;;;;;;;3.07;1.37;;;;;;;8.89;74.71;97953.00;6284474;28;20299;-42
2022/11/25 10:13:14;;;;;;;3.60;0.80;;;;;;;9.15;74.54;97945.09;6291430;28;20331;-42
2022/11/25 10:16:42;;;;;;;4.27;0.80;;;;;;;9.43;72.26;97950.09;6286174;28;20780;-43
2022/11/25 10:19:55;;;;;;;1.70;0.73;;;;;;;9.60;70.99;97960.25;6286535;28;20226;-42
2022/11/25 10:23:02;;;;;;;1.77;0.80;;;;;;;9.62;70.40;97952.25;6286965;28;20617;-42
2022/11/25 10:26:18;;;;;;;2.70;0.80;;;;;;;9.47;63.73;97948.94;6288549;28;20717;-43
2022/11/25 10:29:29;;;;;;;1.83;0.90;;;;;;;9.44;65.13;97946.53;6290977;28;20604;-43
2022/11/25 10:32:40;;;;;;;4.10;0.80;;;;;;;9.51;65.37;97944.28;6283654;28;20225;-43
2022/11/25 10:35:50;;;;;;;1.87;0.70;;;;;;;9.62;63.09;97946.97;6284919;28;20235;-44
2022/11/25 10:39:10;;;;;;;2.10;0.90;;;;;;;9.78;61.82;97941.47;6285007;28;20245;-43
2022/11/25 10:42:20;;;;;;;3.63;0.93;;;;;;;9.86;63.30;97937.31;6287622;28;20659;-43
2022/11/25 10:45:30;;;;;;;3.43;0.90;;;;;;;9.94;62.09;97937.59;6285003;28;20233;-43
2022/11/25 10:48:50;;;;;;;2.73;0.70;;;;;;;10.02;61.89;97936.16;6289577;28;20749;-43
2022/11/25 10:51:53;;;;;;;1.77;0.67;;;;;;;10.03;62.02;97930.78;6288538;28;20763;-43
2022/11/25 10:55:16;;;;;;;2.43;0.73;;;;;;;10.10;60.65;97920.63;6288811;28;20231;-43
2022/11/25 10:58:37;;;;;;;4.40;1.27;;;;;;;10.27;60.75;97920.25;6284845;28;20278;-43
2022/11/25 11:01:39;;;;;;;1.90;0.73;;;;;;;10.26;58.81;97914.13;6286676;28;20310;-45
2022/11/25 11:05:01;;;;;;;3.60;1.10;;;;;;;10.35;59.97;97917.88;6290173;28;20368;-43
2022/11/25 11:08:35;;;;;;;3.67;1.20;;;;;;;10.32;60.40;97918.09;6286605;28;20628;-43
2022/11/25 11:11:47;;;;;;;2.53;0.70;;;;;;;10.05;58.21;97910.44;6286530;28;20301;-43
2022/11/25 11:14:51;;;;;;;2.37;0.70;;;;;;;10.07;61.62;97900.59;6288365;28;20313;-44
2022/11/25 11:17:55;;;;;;;2.10;0.80;;;;;;;9.98;61.73;97903.94;6286157;28;20246;-44
2022/11/25 11:20:59;;;;;;;3.77;1.80;;;;;;;9.57;65.65;97899.91;6283599;28;20233;-43
2022/11/25 11:24:21;;;;;;;10.70;2.50;;;;;;;9.33;68.08;97903.44;6286251;28;20236;-44
2022/11/25 11:27:24;;;;;;;6.17;2.23;;;;;;;9.29;69.41;97912.50;6285083;28;20228;-43
2022/11/25 11:30:30;;;;;;;7.00;2.40;;;;;;;9.36;69.08;97909.34;6279798;28;20264;-44
2022/11/25 11:33:54;;;;;;;3.77;1.77;;;;;;;9.41;68.67;97907.22;6280017;28;20321;-44
2022/11/25 11:37:25;;;;;;;4.97;2.07;;;;;;;9.43;69.17;97902.69;6265722;28;20293;-43
2022/11/25 11:40:33;;;;;;;4.03;2.33;;;;;;;9.47;68.79;97900.69;6268670;28;20602;-43
2022/11/25 11:43:47;;;;;;;3.87;2.10;;;;;;;9.71;68.35;97903.31;6268950;28;20266;-43
2022/11/25 11:46:55;;;;;;;4.90;2.40;;;;;;;10.05;67.90;97901.66;6277745;28;20372;-44
2022/11/25 11:50:24;;;;;;;7.90;2.10;;;;;;;10.24;66.30;97902.84;6291753;28;20226;-43
2022/11/25 11:53:35;;;;;;;8.17;1.90;;;;;;;10.07;66.43;97905.88;6291609;28;20309;-44
2022/11/25 11:56:51;;;;;;;6.10;2.30;;;;;;;10.00;65.01;97907.28;6288539;28;20226;-45
2022/11/25 12:00:09;;;;;;;4.30;2.00;;;;;;;10.01;65.56;97893.13;6288966;28;20623;-44
2022/11/25 12:03:24;;;;;;;4.53;2.20;;;;;;;10.23;65.51;97898.53;6294630;28;20232;-44
2022/11/25 12:06:32;;;;;;;8.67;2.93;;;;;;;10.43;64.84;97901.44;6293867;28;20253;-44
2022/11/25 12:09:44;;;;;;;6.20;2.40;;;;;;;10.48;64.49;97905.41;6289862;28;20237;-46
2022/11/25 12:12:58;;;;;;;4.37;1.60;;;;;;;10.64;63.78;97900.66;6294090;28;20703;-44
2022/11/25 12:16:44;;;;;;;4.63;1.70;;;;;;;10.95;63.39;97893.84;6275083;28;20233;-44
2022/11/25 12:19:57;;;;;;;5.53;1.63;;;;;;;11.08;62.77;97886.59;6203727;28;20414;-45
2022/11/25 12:23:18;;;;;;;6.20;1.77;;;;;;;11.21;61.58;97894.41;6203279;28;20242;-45
2022/11/25 12:26:28;;;;;;;3.53;1.47;;;;;;;11.35;59.47;97894.16;6184528;28;20572;-44
2022/11/25 12:29:41;;;;;;;3.03;1.50;;;;;;;11.48;59.48;97889.53;6202775;28;20838;-44
2022/11/25 12:32:58;;;;;;;5.67;1.70;;;;;;;11.15;59.55;97886.13;6203566;28;20690;-44
2022/11/25 12:36:17;;;;;;;5.50;1.70;;;;;;;11.93;59.56;97881.50;6198621;28;20236;-45
2022/11/25 12:39:41;;;;;;;6.83;1.63;;;;;;;13.32;52.88;97877.56;6201263;28;20228;-44
2022/11/25 12:42:47;;;;;;;5.53;1.90;;;;;;;14.73;48.59;97884.06;6201930;28;20715;-44
2022/11/25 12:46:02;;;;;;;4.33;1.60;;;;;;;15.57;46.22;97880.50;6202811;28;20629;-44
2022/11/25 12:49:12;;;;;;;2.93;1.27;;;;;;;16.47;43.42;97883.00;6201957;28;20509;-44
2022/11/25 12:52:55;;;;;;;4.30;1.30;;;;;;;16.95;41.86;97886.03;6201744;28;20762;-44
2022/11/25 12:56:02;;;;;;;6.20;1.57;;;;;;;14.14;47.19;97888.72;6245026;28;20234;-44
2022/11/25 12:59:19;;;;;;;3.00;1.00;;;;;;;12.52;52.60;97894.19;6285334;28;20233;-44
2022/11/25 13:02:59;;;;;;;4.43;1.23;;;;;;;11.15;56.92;97894.06;6291943;28;20251;-44
2022/11/25 13:06:21;;;;;;;5.00;1.60;;;;;;;10.22;59.52;97896.00;6288638;28;20240;-43
2022/11/25 13:10:06;;;;;;;5.40;1.40;;;;;;;9.69;61.09;97900.78;6293923;28;20233;-44
2022/11/25 13:13:23;;;;;;;4.30;1.40;;;;;;;9.41;62.53;97901.09;6259503;28;20272;-44
2022/11/25 13:16:26;;;;;;;4.30;1.27;;;;;;;9.15;63.87;97901.19;6289795;28;20230;-44
2022/11/25 13:19:35;;;;;;;4.80;1.10;;;;;;;8.92;64.91;97909.84;6269540;28;20247;-44
2022/11/25 13:22:38;;;;;;;3.47;1.37;;;;;;;8.78;64.75;97908.19;6284393;28;20231;-44
2022/11/25 13:25:42;;;;;;;3.07;1.20;;;;;;;8.63;64.94;97906.63;6291536;28;20351;-43
2022/11/25 13:28:44;;;;;;;5.40;1.23;;;;;;;8.47;65.87;97911.25;6290689;28;20293;-46
2022/11/25 13:32:04;;;;;;;3.63;0.90;;;;;;;8.41;64.91;97914.28;6292805;28;20266;-44
2022/11/25 13:35:21;;;;;;;4.93;1.20;;;;;;;8.41;65.02;97906.41;6291397;28;20228;-44
2022/11/25 13:38:29;;;;;;;2.03;1.10;;;;;;;8.34;65.55;97907.75;6289407;28;20222;-44
2022/11/25 13:41:57;;;;;;;4.10;1.30;;;;;;;8.22;66.26;97909.38;6289071;28;20232;-43
2022/11/25 13:44:59;;;;;;;2.57;1.10;;;;;;;7.99;68.01;97910.06;6289449;28;20229;-43
2022/11/25 13:48:22;;;;;;;3.60;1.37;;;;;;;8.03;68.39;97908.94;6289121;28;20710;-43
2022/11/25 13:51:25;;;;;;;4.43;1.50;;;;;;;8.16;65.43;97907.19;6288858;28;20643;-46
2022/11/25 13:54:36;;;;;;;3.23;1.40;;;;;;;8.25;64.89;97905.72;6289199;28;20344;-44
2022/11/25 13:57:41;;;;;;;5.53;1.50;;;;;;;8.19;65.93;97901.69;6294123;28;20218;-44
2022/11/25 14:01:04;;;;;;;3.87;1.10;;;;;;;7.91;68.86;97907.13;6289007;28;20324;-43
2022/11/25 14:04:09;;;;;;;4.20;1.00;;;;;;;7.54;71.16;97911.31;6294928;28;20570;-44
2022/11/25 14:07:32;;;;;;;2.40;1.10;;;;;;;7.10;72.69;97919.34;6290565;28;20645;-43
2022/11/25 14:10:44;;;;;;;4.40;1.53;;;;;;;6.79;74.23;97926.50;6266554;28;20361;-43
2022/11/25 14:14:40;;;;;;;2.93;1.10;;;;;;;6.38;75.88;97934.25;6288179;28;20226;-43
2022/11/25 14:18:24;;;;;;;4.67;1.50;;;;;;;6.04;77.46;97931.91;6184317;28;20226;-44
2022/11/25 14:22:25;;;;;;;6.27;1.47;;;;;;;5.75;78.46;97937.03;6290641;28;20234;-44
2022/11/25 14:25:32;;;;;;;3.20;1.00;;;;;;;5.59;78.95;97951.91;6280372;28;20363;-44
2022/11/25 14:28:54;;;;;;;4.43;0.80;;;;;;;5.30;80.48;97950.03;6289774;28;20249;-44
2022/11/25 14:32:09;;;;;;;3.50;0.93;;;;;;;5.08;81.60;97958.25;6281204;28;20277;-44
2022/11/25 14:35:21;;;;;;;3.07;1.00;;;;;;;4.86;82.42;97961.16;6290672;28;20237;-44
2022/11/25 14:38:32;;;;;;;4.70;0.97;;;;;;;4.75;82.84;97960.88;6290372;28;20315;-45
2022/11/25 14:41:43;;;;;;;1.33;0.87;;;;;;;4.62;83.39;97968.50;6282644;28;20727;-44
2022/11/25 14:44:47;;;;;;;4.10;0.87;;;;;;;4.45;84.53;97966.75;6289514;28;20607;-43
2022/11/25 14:47:49;;;;;;;2.70;1.10;;;;;;;4.34;84.50;97973.44;6290924;28;20770;-43
2022/11/25 14:51:01;;;;;;;1.93;1.10;;;;;;;4.22;85.46;97971.44;6288162;28;20238;-44
2022/11/25 14:54:07;;;;;;;2.67;0.83;;;;;;;4.04;85.92;97974.06;6286524;28;20230;-43
2022/11/25 14:57:10;;;;;;;3.27;1.07;;;;;;;3.88;86.90;97974.91;6268043;28;20234;-44
2022/11/25 15:00:15;;;;;;;3.23;0.80;;;;;;;3.83;86.72;97976.88;6289207;28;20308;-44